sensor_id;sensor_type;location;lat;lon;timestamp;P1;durP1;ratioP1;P2;durP2;ratioP2
47155;SDS011;32908;52.344;16.858;2023-05-07T00:02:03;9.60;;;4.70;;
47155;SDS011;32908;52.344;16.858;2023-05-07T00:04:32;6.70;;;5.10;;
47155;SDS011;32908;52.344;16.858;2023-05-07T00:07:03;8.10;;;5.00;;
47155;SDS011;32908;52.344;16.858;2023-05-07T00:09:32;6.30;;;4.80;;
47155;SDS011;32908;52.344;16.858;2023-05-07T00:12:00;8.40;;;5.40;;
47155;SDS011;32908;52.344;16.858;2023-05-07T00:14:28;7.60;;;5.10;;
47155;SDS011;32908;52.344;16.858;2023-05-07T00:16:55;9.30;;;4.90;;
47155;SDS011;32908;52.344;16.858;2023-05-07T00:19:23;9.50;;;5.20;;
47155;SDS011;32908;52.344;16.858;2023-05-07T00:21:51;7.10;;;5.00;;
47155;SDS011;32908;52.344;16.858;2023-05-07T00:24:20;9.10;;;5.30;;
47155;SDS011;32908;52.344;16.858;2023-05-07T00:26:48;7.50;;;4.70;;
47155;SDS011;32908;52.344;16.858;2023-05-07T00:29:16;5.60;;;4.40;;
47155;SDS011;32908;52.344;16.858;2023-05-07T00:31:44;7.90;;;4.00;;
47155;SDS011;32908;52.344;16.858;2023-05-07T00:34:12;10.00;;;4.40;;
47155;SDS011;32908;52.344;16.858;2023-05-07T00:36:40;5.80;;;4.50;;
47155;SDS011;32908;52.344;16.858;2023-05-07T00:39:08;7.70;;;4.50;;
47155;SDS011;32908;52.344;16.858;2023-05-07T00:41:36;6.10;;;4.40;;
47155;SDS011;32908;52.344;16.858;2023-05-07T00:44:04;6.80;;;4.60;;
47155;SDS011;32908;52.344;16.858;2023-05-07T00:46:32;6.90;;;4.30;;
47155;SDS011;32908;52.344;16.858;2023-05-07T00:49:00;6.80;;;4.30;;
47155;SDS011;32908;52.344;16.858;2023-05-07T00:51:28;6.80;;;4.80;;
47155;SDS011;32908;52.344;16.858;2023-05-07T00:53:56;7.20;;;4.60;;
47155;SDS011;32908;52.344;16.858;2023-05-07T00:56:24;5.70;;;4.30;;
47155;SDS011;32908;52.344;16.858;2023-05-07T00:58:52;5.20;;;3.60;;
47155;SDS011;32908;52.344;16.858;2023-05-07T01:01:20;7.30;;;4.10;;
47155;SDS011;32908;52.344;16.858;2023-05-07T01:03:48;6.90;;;4.30;;
47155;SDS011;32908;52.344;16.858;2023-05-07T01:06:17;7.60;;;4.40;;
47155;SDS011;32908;52.344;16.858;2023-05-07T01:08:45;6.70;;;4.00;;
47155;SDS011;32908;52.344;16.858;2023-05-07T01:11:13;6.50;;;4.10;;
47155;SDS011;32908;52.344;16.858;2023-05-07T01:13:41;5.10;;;4.10;;
47155;SDS011;32908;52.344;16.858;2023-05-07T01:16:09;4.80;;;4.10;;
47155;SDS011;32908;52.344;16.858;2023-05-07T01:18:37;6.10;;;3.90;;
47155;SDS011;32908;52.344;16.858;2023-05-07T01:21:05;4.90;;;3.70;;
47155;SDS011;32908;52.344;16.858;2023-05-07T01:23:34;7.10;;;4.10;;
47155;SDS011;32908;52.344;16.858;2023-05-07T01:26:02;6.10;;;4.30;;
47155;SDS011;32908;52.344;16.858;2023-05-07T01:28:30;7.90;;;4.40;;
47155;SDS011;32908;52.344;16.858;2023-05-07T01:31:00;5.60;;;4.40;;
47155;SDS011;32908;52.344;16.858;2023-05-07T01:33:29;7.90;;;4.70;;
47155;SDS011;32908;52.344;16.858;2023-05-07T01:35:59;8.30;;;4.60;;
47155;SDS011;32908;52.344;16.858;2023-05-07T01:38:30;6.90;;;4.80;;
47155;SDS011;32908;52.344;16.858;2023-05-07T01:40:58;6.30;;;4.80;;
47155;SDS011;32908;52.344;16.858;2023-05-07T01:43:26;7.60;;;5.00;;
47155;SDS011;32908;52.344;16.858;2023-05-07T01:45:54;8.00;;;5.90;;
47155;SDS011;32908;52.344;16.858;2023-05-07T01:48:22;8.70;;;5.80;;
47155;SDS011;32908;52.344;16.858;2023-05-07T01:50:51;9.40;;;5.40;;
47155;SDS011;32908;52.344;16.858;2023-05-07T01:53:20;7.00;;;5.60;;
47155;SDS011;32908;52.344;16.858;2023-05-07T01:55:47;9.10;;;6.70;;
47155;SDS011;32908;52.344;16.858;2023-05-07T01:58:15;9.10;;;6.60;;
47155;SDS011;32908;52.344;16.858;2023-05-07T02:00:43;8.90;;;6.70;;
47155;SDS011;32908;52.344;16.858;2023-05-07T02:03:11;10.90;;;7.30;;
47155;SDS011;32908;52.344;16.858;2023-05-07T02:05:39;8.40;;;7.40;;
47155;SDS011;32908;52.344;16.858;2023-05-07T02:08:07;10.90;;;7.90;;
47155;SDS011;32908;52.344;16.858;2023-05-07T02:10:35;12.70;;;7.50;;
47155;SDS011;32908;52.344;16.858;2023-05-07T02:13:03;12.00;;;7.40;;
47155;SDS011;32908;52.344;16.858;2023-05-07T02:15:31;10.40;;;7.30;;
47155;SDS011;32908;52.344;16.858;2023-05-07T02:17:59;9.40;;;6.70;;
47155;SDS011;32908;52.344;16.858;2023-05-07T02:20:28;11.60;;;8.00;;
47155;SDS011;32908;52.344;16.858;2023-05-07T02:22:56;13.10;;;7.90;;
47155;SDS011;32908;52.344;16.858;2023-05-07T02:25:24;11.90;;;7.70;;
47155;SDS011;32908;52.344;16.858;2023-05-07T02:27:52;10.80;;;7.90;;
47155;SDS011;32908;52.344;16.858;2023-05-07T02:30:20;11.70;;;8.40;;
47155;SDS011;32908;52.344;16.858;2023-05-07T02:32:48;11.20;;;8.20;;
47155;SDS011;32908;52.344;16.858;2023-05-07T02:35:16;18.20;;;8.60;;
47155;SDS011;32908;52.344;16.858;2023-05-07T02:37:44;11.70;;;8.60;;
47155;SDS011;32908;52.344;16.858;2023-05-07T02:40:13;11.30;;;8.80;;
47155;SDS011;32908;52.344;16.858;2023-05-07T02:42:40;10.40;;;8.70;;
47155;SDS011;32908;52.344;16.858;2023-05-07T02:45:09;11.80;;;9.00;;
47155;SDS011;32908;52.344;16.858;2023-05-07T02:47:38;12.80;;;9.60;;
47155;SDS011;32908;52.344;16.858;2023-05-07T02:50:07;11.90;;;9.40;;
47155;SDS011;32908;52.344;16.858;2023-05-07T02:52:35;13.50;;;9.10;;
47155;SDS011;32908;52.344;16.858;2023-05-07T02:55:04;12.00;;;9.40;;
47155;SDS011;32908;52.344;16.858;2023-05-07T02:57:33;13.10;;;9.80;;
47155;SDS011;32908;52.344;16.858;2023-05-07T03:00:10;17.80;;;10.00;;
47155;SDS011;32908;52.344;16.858;2023-05-07T03:02:39;14.70;;;9.70;;
47155;SDS011;32908;52.344;16.858;2023-05-07T03:05:07;12.40;;;10.90;;
47155;SDS011;32908;52.344;16.858;2023-05-07T03:07:36;14.20;;;10.60;;
47155;SDS011;32908;52.344;16.858;2023-05-07T03:10:04;14.00;;;10.30;;
47155;SDS011;32908;52.344;16.858;2023-05-07T03:12:34;13.30;;;10.00;;
47155;SDS011;32908;52.344;16.858;2023-05-07T03:15:02;13.30;;;10.10;;
47155;SDS011;32908;52.344;16.858;2023-05-07T03:17:30;13.30;;;9.50;;
47155;SDS011;32908;52.344;16.858;2023-05-07T03:19:58;13.70;;;9.50;;
47155;SDS011;32908;52.344;16.858;2023-05-07T03:22:26;13.40;;;9.50;;
47155;SDS011;32908;52.344;16.858;2023-05-07T03:24:54;12.50;;;9.10;;
47155;SDS011;32908;52.344;16.858;2023-05-07T03:27:22;14.00;;;10.80;;
47155;SDS011;32908;52.344;16.858;2023-05-07T03:29:50;11.90;;;9.50;;
47155;SDS011;32908;52.344;16.858;2023-05-07T03:32:18;11.10;;;9.70;;
47155;SDS011;32908;52.344;16.858;2023-05-07T03:34:46;12.30;;;9.80;;
47155;SDS011;32908;52.344;16.858;2023-05-07T03:37:14;13.50;;;9.20;;
47155;SDS011;32908;52.344;16.858;2023-05-07T03:39:42;13.80;;;9.80;;
47155;SDS011;32908;52.344;16.858;2023-05-07T03:42:10;15.60;;;10.10;;
47155;SDS011;32908;52.344;16.858;2023-05-07T03:44:38;13.40;;;10.10;;
47155;SDS011;32908;52.344;16.858;2023-05-07T03:47:06;13.00;;;9.00;;
47155;SDS011;32908;52.344;16.858;2023-05-07T03:49:34;12.60;;;9.10;;
47155;SDS011;32908;52.344;16.858;2023-05-07T03:52:02;11.50;;;7.70;;
47155;SDS011;32908;52.344;16.858;2023-05-07T03:54:31;14.00;;;8.30;;
47155;SDS011;32908;52.344;16.858;2023-05-07T03:56:59;12.60;;;8.40;;
47155;SDS011;32908;52.344;16.858;2023-05-07T03:59:27;14.30;;;8.40;;
47155;SDS011;32908;52.344;16.858;2023-05-07T04:01:54;12.80;;;9.30;;
47155;SDS011;32908;52.344;16.858;2023-05-07T04:04:22;12.60;;;9.30;;
47155;SDS011;32908;52.344;16.858;2023-05-07T04:06:50;11.40;;;8.20;;
47155;SDS011;32908;52.344;16.858;2023-05-07T04:09:19;14.60;;;8.30;;
47155;SDS011;32908;52.344;16.858;2023-05-07T04:11:47;15.20;;;8.90;;
47155;SDS011;32908;52.344;16.858;2023-05-07T04:14:15;10.90;;;7.30;;
47155;SDS011;32908;52.344;16.858;2023-05-07T04:16:43;10.60;;;7.40;;
47155;SDS011;32908;52.344;16.858;2023-05-07T04:19:11;10.00;;;7.70;;
47155;SDS011;32908;52.344;16.858;2023-05-07T04:21:39;11.80;;;6.80;;
47155;SDS011;32908;52.344;16.858;2023-05-07T04:24:07;11.20;;;7.10;;
47155;SDS011;32908;52.344;16.858;2023-05-07T04:26:35;9.70;;;7.40;;
47155;SDS011;32908;52.344;16.858;2023-05-07T04:29:03;8.50;;;6.70;;
47155;SDS011;32908;52.344;16.858;2023-05-07T04:31:31;9.50;;;7.10;;
47155;SDS011;32908;52.344;16.858;2023-05-07T04:33:59;9.70;;;7.10;;
47155;SDS011;32908;52.344;16.858;2023-05-07T04:36:28;12.30;;;7.30;;
47155;SDS011;32908;52.344;16.858;2023-05-07T04:38:55;11.60;;;7.10;;
47155;SDS011;32908;52.344;16.858;2023-05-07T04:41:23;10.40;;;7.50;;
47155;SDS011;32908;52.344;16.858;2023-05-07T04:43:51;8.00;;;6.70;;
47155;SDS011;32908;52.344;16.858;2023-05-07T04:46:19;7.80;;;6.50;;
47155;SDS011;32908;52.344;16.858;2023-05-07T04:48:47;10.00;;;6.70;;
47155;SDS011;32908;52.344;16.858;2023-05-07T04:51:15;8.90;;;7.00;;
47155;SDS011;32908;52.344;16.858;2023-05-07T04:53:43;9.40;;;6.60;;
47155;SDS011;32908;52.344;16.858;2023-05-07T04:56:11;7.80;;;6.20;;
47155;SDS011;32908;52.344;16.858;2023-05-07T04:58:39;10.70;;;6.70;;
47155;SDS011;32908;52.344;16.858;2023-05-07T05:01:07;14.30;;;7.60;;
47155;SDS011;32908;52.344;16.858;2023-05-07T05:03:35;8.00;;;6.50;;
47155;SDS011;32908;52.344;16.858;2023-05-07T05:06:03;10.90;;;7.20;;
47155;SDS011;32908;52.344;16.858;2023-05-07T05:08:31;9.30;;;6.90;;
47155;SDS011;32908;52.344;16.858;2023-05-07T05:11:01;10.10;;;7.10;;
47155;SDS011;32908;52.344;16.858;2023-05-07T05:13:29;9.10;;;6.80;;
47155;SDS011;32908;52.344;16.858;2023-05-07T05:15:57;9.60;;;7.00;;
47155;SDS011;32908;52.344;16.858;2023-05-07T05:18:25;11.00;;;6.80;;
47155;SDS011;32908;52.344;16.858;2023-05-07T05:20:52;11.30;;;7.50;;
47155;SDS011;32908;52.344;16.858;2023-05-07T05:23:20;7.50;;;5.90;;
47155;SDS011;32908;52.344;16.858;2023-05-07T05:25:48;6.90;;;5.00;;
47155;SDS011;32908;52.344;16.858;2023-05-07T05:28:17;6.40;;;4.90;;
47155;SDS011;32908;52.344;16.858;2023-05-07T05:30:44;8.10;;;5.10;;
47155;SDS011;32908;52.344;16.858;2023-05-07T05:33:12;6.50;;;4.90;;
47155;SDS011;32908;52.344;16.858;2023-05-07T05:35:41;5.50;;;4.30;;
47155;SDS011;32908;52.344;16.858;2023-05-07T05:38:09;8.10;;;4.60;;
47155;SDS011;32908;52.344;16.858;2023-05-07T05:40:37;6.30;;;4.50;;
47155;SDS011;32908;52.344;16.858;2023-05-07T05:43:05;7.90;;;4.50;;
47155;SDS011;32908;52.344;16.858;2023-05-07T05:45:33;6.00;;;3.70;;
47155;SDS011;32908;52.344;16.858;2023-05-07T05:48:01;7.00;;;4.00;;
47155;SDS011;32908;52.344;16.858;2023-05-07T05:50:29;5.80;;;4.20;;
47155;SDS011;32908;52.344;16.858;2023-05-07T05:52:57;8.60;;;4.20;;
47155;SDS011;32908;52.344;16.858;2023-05-07T05:55:25;8.40;;;4.60;;
47155;SDS011;32908;52.344;16.858;2023-05-07T05:57:53;4.40;;;3.30;;
47155;SDS011;32908;52.344;16.858;2023-05-07T06:00:21;5.40;;;3.80;;
47155;SDS011;32908;52.344;16.858;2023-05-07T06:02:49;6.20;;;4.20;;
47155;SDS011;32908;52.344;16.858;2023-05-07T06:05:17;10.10;;;4.30;;
47155;SDS011;32908;52.344;16.858;2023-05-07T06:07:46;6.90;;;3.10;;
47155;SDS011;32908;52.344;16.858;2023-05-07T06:10:14;7.40;;;3.00;;
47155;SDS011;32908;52.344;16.858;2023-05-07T06:12:42;4.30;;;3.30;;
47155;SDS011;32908;52.344;16.858;2023-05-07T06:15:11;4.20;;;3.20;;
47155;SDS011;32908;52.344;16.858;2023-05-07T06:17:39;5.10;;;3.00;;
47155;SDS011;32908;52.344;16.858;2023-05-07T06:20:07;4.40;;;3.00;;
47155;SDS011;32908;52.344;16.858;2023-05-07T06:22:36;5.90;;;3.60;;
47155;SDS011;32908;52.344;16.858;2023-05-07T06:25:04;4.40;;;3.00;;
47155;SDS011;32908;52.344;16.858;2023-05-07T06:27:33;3.20;;;2.80;;
47155;SDS011;32908;52.344;16.858;2023-05-07T06:30:02;3.10;;;2.50;;
47155;SDS011;32908;52.344;16.858;2023-05-07T06:32:30;5.90;;;2.60;;
47155;SDS011;32908;52.344;16.858;2023-05-07T06:34:58;3.00;;;2.00;;
47155;SDS011;32908;52.344;16.858;2023-05-07T06:37:26;5.50;;;3.00;;
47155;SDS011;32908;52.344;16.858;2023-05-07T06:39:54;5.00;;;2.90;;
47155;SDS011;32908;52.344;16.858;2023-05-07T06:42:22;5.80;;;2.90;;
47155;SDS011;32908;52.344;16.858;2023-05-07T06:44:50;5.10;;;2.80;;
47155;SDS011;32908;52.344;16.858;2023-05-07T06:47:18;4.70;;;2.40;;
47155;SDS011;32908;52.344;16.858;2023-05-07T06:49:46;6.90;;;2.70;;
47155;SDS011;32908;52.344;16.858;2023-05-07T06:52:13;5.00;;;2.40;;
47155;SDS011;32908;52.344;16.858;2023-05-07T06:54:41;4.50;;;2.60;;
47155;SDS011;32908;52.344;16.858;2023-05-07T06:57:09;4.30;;;2.40;;
47155;SDS011;32908;52.344;16.858;2023-05-07T06:59:37;4.10;;;2.30;;
47155;SDS011;32908;52.344;16.858;2023-05-07T07:02:05;3.10;;;2.30;;
47155;SDS011;32908;52.344;16.858;2023-05-07T07:04:33;3.30;;;2.10;;
47155;SDS011;32908;52.344;16.858;2023-05-07T07:07:01;4.60;;;2.80;;
47155;SDS011;32908;52.344;16.858;2023-05-07T07:09:29;4.00;;;2.20;;
47155;SDS011;32908;52.344;16.858;2023-05-07T07:11:57;3.40;;;2.00;;
47155;SDS011;32908;52.344;16.858;2023-05-07T07:14:25;2.00;;;1.70;;
47155;SDS011;32908;52.344;16.858;2023-05-07T07:16:53;3.30;;;2.00;;
47155;SDS011;32908;52.344;16.858;2023-05-07T07:19:21;16.30;;;2.50;;
47155;SDS011;32908;52.344;16.858;2023-05-07T07:21:49;2.40;;;1.60;;
47155;SDS011;32908;52.344;16.858;2023-05-07T07:24:17;2.10;;;1.50;;
47155;SDS011;32908;52.344;16.858;2023-05-07T07:26:47;2.90;;;1.70;;
47155;SDS011;32908;52.344;16.858;2023-05-07T07:29:15;2.30;;;1.60;;
47155;SDS011;32908;52.344;16.858;2023-05-07T07:31:44;5.20;;;2.10;;
47155;SDS011;32908;52.344;16.858;2023-05-07T07:34:12;3.50;;;2.20;;
47155;SDS011;32908;52.344;16.858;2023-05-07T07:36:40;2.20;;;1.70;;
47155;SDS011;32908;52.344;16.858;2023-05-07T07:39:08;4.40;;;1.70;;
47155;SDS011;32908;52.344;16.858;2023-05-07T07:41:36;2.50;;;1.80;;
47155;SDS011;32908;52.344;16.858;2023-05-07T07:44:04;3.20;;;1.70;;
47155;SDS011;32908;52.344;16.858;2023-05-07T07:46:33;3.50;;;1.50;;
47155;SDS011;32908;52.344;16.858;2023-05-07T07:49:01;4.80;;;2.00;;
47155;SDS011;32908;52.344;16.858;2023-05-07T07:51:29;3.50;;;1.60;;
47155;SDS011;32908;52.344;16.858;2023-05-07T07:53:57;4.10;;;2.00;;
47155;SDS011;32908;52.344;16.858;2023-05-07T07:56:25;3.60;;;1.90;;
47155;SDS011;32908;52.344;16.858;2023-05-07T07:58:53;2.70;;;1.90;;
47155;SDS011;32908;52.344;16.858;2023-05-07T08:01:21;3.40;;;1.80;;
47155;SDS011;32908;52.344;16.858;2023-05-07T08:03:49;6.00;;;2.20;;
47155;SDS011;32908;52.344;16.858;2023-05-07T08:06:17;9.60;;;6.00;;
47155;SDS011;32908;52.344;16.858;2023-05-07T08:08:45;6.60;;;4.60;;
47155;SDS011;32908;52.344;16.858;2023-05-07T08:11:13;7.90;;;6.10;;
47155;SDS011;32908;52.344;16.858;2023-05-07T08:13:41;3.80;;;3.10;;
47155;SDS011;32908;52.344;16.858;2023-05-07T08:16:09;3.30;;;1.90;;
47155;SDS011;32908;52.344;16.858;2023-05-07T08:18:37;1.80;;;1.70;;
47155;SDS011;32908;52.344;16.858;2023-05-07T08:21:05;2.80;;;2.20;;
47155;SDS011;32908;52.344;16.858;2023-05-07T08:23:33;3.90;;;2.60;;
47155;SDS011;32908;52.344;16.858;2023-05-07T08:26:01;4.80;;;4.20;;
47155;SDS011;32908;52.344;16.858;2023-05-07T08:28:29;3.80;;;2.10;;
47155;SDS011;32908;52.344;16.858;2023-05-07T08:30:57;3.40;;;2.10;;
47155;SDS011;32908;52.344;16.858;2023-05-07T08:33:26;3.30;;;2.50;;
47155;SDS011;32908;52.344;16.858;2023-05-07T08:35:54;4.30;;;2.20;;
47155;SDS011;32908;52.344;16.858;2023-05-07T08:38:22;4.00;;;2.20;;
47155;SDS011;32908;52.344;16.858;2023-05-07T08:40:50;2.70;;;1.80;;
47155;SDS011;32908;52.344;16.858;2023-05-07T08:43:18;4.40;;;2.30;;
47155;SDS011;32908;52.344;16.858;2023-05-07T08:45:47;3.70;;;2.90;;
47155;SDS011;32908;52.344;16.858;2023-05-07T08:48:17;4.60;;;2.20;;
47155;SDS011;32908;52.344;16.858;2023-05-07T08:50:45;4.40;;;2.20;;
47155;SDS011;32908;52.344;16.858;2023-05-07T08:53:13;3.40;;;2.00;;
47155;SDS011;32908;52.344;16.858;2023-05-07T08:55:42;4.20;;;2.90;;
47155;SDS011;32908;52.344;16.858;2023-05-07T08:58:10;2.10;;;1.80;;
47155;SDS011;32908;52.344;16.858;2023-05-07T09:00:38;4.40;;;2.10;;
47155;SDS011;32908;52.344;16.858;2023-05-07T09:03:07;3.30;;;2.30;;
47155;SDS011;32908;52.344;16.858;2023-05-07T09:05:38;3.50;;;2.00;;
47155;SDS011;32908;52.344;16.858;2023-05-07T09:08:07;5.70;;;2.60;;
47155;SDS011;32908;52.344;16.858;2023-05-07T09:10:35;4.30;;;2.80;;
47155;SDS011;32908;52.344;16.858;2023-05-07T09:13:03;6.60;;;3.00;;
47155;SDS011;32908;52.344;16.858;2023-05-07T09:15:31;5.40;;;2.40;;
47155;SDS011;32908;52.344;16.858;2023-05-07T09:17:59;3.10;;;2.40;;
47155;SDS011;32908;52.344;16.858;2023-05-07T09:20:28;4.70;;;2.50;;
47155;SDS011;32908;52.344;16.858;2023-05-07T09:22:58;4.80;;;4.20;;
47155;SDS011;32908;52.344;16.858;2023-05-07T09:25:29;3.10;;;2.50;;
47155;SDS011;32908;52.344;16.858;2023-05-07T09:27:57;2.00;;;1.90;;
47155;SDS011;32908;52.344;16.858;2023-05-07T09:30:27;2.30;;;1.90;;
47155;SDS011;32908;52.344;16.858;2023-05-07T09:32:57;4.90;;;2.10;;
47155;SDS011;32908;52.344;16.858;2023-05-07T09:35:25;3.00;;;1.90;;
47155;SDS011;32908;52.344;16.858;2023-05-07T09:37:54;3.30;;;2.20;;
47155;SDS011;32908;52.344;16.858;2023-05-07T09:40:23;3.90;;;2.30;;
47155;SDS011;32908;52.344;16.858;2023-05-07T09:42:52;3.30;;;2.40;;
47155;SDS011;32908;52.344;16.858;2023-05-07T09:45:23;3.00;;;2.40;;
47155;SDS011;32908;52.344;16.858;2023-05-07T09:47:53;4.10;;;2.60;;
47155;SDS011;32908;52.344;16.858;2023-05-07T09:50:23;2.80;;;2.30;;
47155;SDS011;32908;52.344;16.858;2023-05-07T09:52:53;3.90;;;2.20;;
47155;SDS011;32908;52.344;16.858;2023-05-07T09:55:22;2.90;;;2.10;;
47155;SDS011;32908;52.344;16.858;2023-05-07T09:57:51;2.40;;;1.80;;
47155;SDS011;32908;52.344;16.858;2023-05-07T10:00:20;3.50;;;2.20;;
47155;SDS011;32908;52.344;16.858;2023-05-07T10:02:49;2.30;;;1.80;;
47155;SDS011;32908;52.344;16.858;2023-05-07T10:05:18;3.10;;;1.80;;
47155;SDS011;32908;52.344;16.858;2023-05-07T10:07:46;2.50;;;2.00;;
47155;SDS011;32908;52.344;16.858;2023-05-07T10:10:14;2.20;;;1.80;;
47155;SDS011;32908;52.344;16.858;2023-05-07T10:12:42;3.70;;;2.10;;
47155;SDS011;32908;52.344;16.858;2023-05-07T10:15:11;3.20;;;1.90;;
47155;SDS011;32908;52.344;16.858;2023-05-07T10:17:40;4.10;;;2.00;;
47155;SDS011;32908;52.344;16.858;2023-05-07T10:20:09;3.20;;;2.30;;
47155;SDS011;32908;52.344;16.858;2023-05-07T10:22:38;4.40;;;2.00;;
47155;SDS011;32908;52.344;16.858;2023-05-07T10:25:12;2.50;;;1.80;;
47155;SDS011;32908;52.344;16.858;2023-05-07T10:27:44;3.50;;;2.40;;
47155;SDS011;32908;52.344;16.858;2023-05-07T10:30:15;4.20;;;2.20;;
47155;SDS011;32908;52.344;16.858;2023-05-07T10:32:53;2.10;;;1.90;;
47155;SDS011;32908;52.344;16.858;2023-05-07T10:35:23;3.70;;;2.20;;
47155;SDS011;32908;52.344;16.858;2023-05-07T10:37:52;5.30;;;1.90;;
47155;SDS011;32908;52.344;16.858;2023-05-07T10:40:20;3.60;;;2.10;;
47155;SDS011;32908;52.344;16.858;2023-05-07T10:42:55;3.60;;;2.50;;
47155;SDS011;32908;52.344;16.858;2023-05-07T10:45:25;5.40;;;3.20;;
47155;SDS011;32908;52.344;16.858;2023-05-07T10:48:09;3.60;;;2.80;;
47155;SDS011;32908;52.344;16.858;2023-05-07T10:50:38;10.20;;;3.20;;
47155;SDS011;32908;52.344;16.858;2023-05-07T10:53:25;3.30;;;2.20;;
47155;SDS011;32908;52.344;16.858;2023-05-07T10:58:56;2.50;;;2.10;;
47155;SDS011;32908;52.344;16.858;2023-05-07T11:02:08;2.60;;;2.20;;
47155;SDS011;32908;52.344;16.858;2023-05-07T11:04:37;2.40;;;2.00;;
47155;SDS011;32908;52.344;16.858;2023-05-07T11:09:58;2.60;;;1.80;;
47155;SDS011;32908;52.344;16.858;2023-05-07T11:12:49;1.50;;;1.30;;
47155;SDS011;32908;52.344;16.858;2023-05-07T11:15:33;2.10;;;1.90;;
47155;SDS011;32908;52.344;16.858;2023-05-07T11:18:03;2.50;;;2.00;;
47155;SDS011;32908;52.344;16.858;2023-05-07T11:20:53;2.90;;;2.00;;
47155;SDS011;32908;52.344;16.858;2023-05-07T11:26:27;2.90;;;1.90;;
47155;SDS011;32908;52.344;16.858;2023-05-07T11:28:57;3.30;;;1.70;;
47155;SDS011;32908;52.344;16.858;2023-05-07T11:31:27;2.10;;;1.90;;
47155;SDS011;32908;52.344;16.858;2023-05-07T11:33:56;2.90;;;1.70;;
47155;SDS011;32908;52.344;16.858;2023-05-07T11:36:24;3.30;;;2.10;;
47155;SDS011;32908;52.344;16.858;2023-05-07T11:38:52;2.90;;;2.10;;
47155;SDS011;32908;52.344;16.858;2023-05-07T11:41:20;5.60;;;2.60;;
47155;SDS011;32908;52.344;16.858;2023-05-07T11:43:55;3.60;;;1.90;;
47155;SDS011;32908;52.344;16.858;2023-05-07T11:46:24;4.60;;;2.10;;
47155;SDS011;32908;52.344;16.858;2023-05-07T11:48:53;4.90;;;2.60;;
47155;SDS011;32908;52.344;16.858;2023-05-07T11:51:21;3.90;;;2.40;;
47155;SDS011;32908;52.344;16.858;2023-05-07T11:53:50;2.30;;;2.00;;
47155;SDS011;32908;52.344;16.858;2023-05-07T11:56:18;2.60;;;1.60;;
47155;SDS011;32908;52.344;16.858;2023-05-07T11:58:47;2.50;;;1.90;;
47155;SDS011;32908;52.344;16.858;2023-05-07T12:01:15;4.60;;;2.50;;
47155;SDS011;32908;52.344;16.858;2023-05-07T12:03:44;3.70;;;1.80;;
47155;SDS011;32908;52.344;16.858;2023-05-07T12:06:13;4.60;;;1.90;;
47155;SDS011;32908;52.344;16.858;2023-05-07T12:08:43;3.20;;;2.10;;
47155;SDS011;32908;52.344;16.858;2023-05-07T12:11:13;2.70;;;1.70;;
47155;SDS011;32908;52.344;16.858;2023-05-07T12:13:42;3.50;;;2.30;;
47155;SDS011;32908;52.344;16.858;2023-05-07T12:16:10;2.70;;;2.20;;
47155;SDS011;32908;52.344;16.858;2023-05-07T12:18:38;4.90;;;2.60;;
47155;SDS011;32908;52.344;16.858;2023-05-07T12:21:07;6.00;;;2.80;;
47155;SDS011;32908;52.344;16.858;2023-05-07T12:23:35;4.40;;;2.50;;
47155;SDS011;32908;52.344;16.858;2023-05-07T12:26:03;3.60;;;2.20;;
47155;SDS011;32908;52.344;16.858;2023-05-07T12:28:32;2.80;;;2.20;;
47155;SDS011;32908;52.344;16.858;2023-05-07T12:31:05;2.70;;;1.70;;
47155;SDS011;32908;52.344;16.858;2023-05-07T12:33:33;2.80;;;1.80;;
47155;SDS011;32908;52.344;16.858;2023-05-07T12:36:06;5.00;;;2.00;;
47155;SDS011;32908;52.344;16.858;2023-05-07T12:38:35;3.10;;;2.40;;
47155;SDS011;32908;52.344;16.858;2023-05-07T12:41:04;4.40;;;2.10;;
47155;SDS011;32908;52.344;16.858;2023-05-07T12:43:33;5.40;;;2.30;;
47155;SDS011;32908;52.344;16.858;2023-05-07T12:46:04;3.20;;;2.30;;
47155;SDS011;32908;52.344;16.858;2023-05-07T12:48:33;4.90;;;2.00;;
47155;SDS011;32908;52.344;16.858;2023-05-07T12:51:04;5.90;;;3.10;;
47155;SDS011;32908;52.344;16.858;2023-05-07T12:53:32;5.10;;;3.30;;
47155;SDS011;32908;52.344;16.858;2023-05-07T12:56:03;3.00;;;2.40;;
47155;SDS011;32908;52.344;16.858;2023-05-07T12:58:34;3.30;;;2.60;;
47155;SDS011;32908;52.344;16.858;2023-05-07T13:01:03;4.10;;;2.80;;
47155;SDS011;32908;52.344;16.858;2023-05-07T13:03:33;5.00;;;3.20;;
47155;SDS011;32908;52.344;16.858;2023-05-07T13:06:03;3.90;;;2.70;;
47155;SDS011;32908;52.344;16.858;2023-05-07T13:08:32;3.80;;;2.70;;
47155;SDS011;32908;52.344;16.858;2023-05-07T13:11:02;5.40;;;3.10;;
47155;SDS011;32908;52.344;16.858;2023-05-07T13:13:30;7.10;;;3.90;;
47155;SDS011;32908;52.344;16.858;2023-05-07T13:15:59;5.90;;;3.60;;
47155;SDS011;32908;52.344;16.858;2023-05-07T13:18:28;5.70;;;3.40;;
47155;SDS011;32908;52.344;16.858;2023-05-07T13:20:57;3.70;;;2.50;;
47155;SDS011;32908;52.344;16.858;2023-05-07T13:23:25;4.70;;;2.70;;
47155;SDS011;32908;52.344;16.858;2023-05-07T13:25:53;4.70;;;2.60;;
47155;SDS011;32908;52.344;16.858;2023-05-07T13:28:22;3.90;;;2.70;;
47155;SDS011;32908;52.344;16.858;2023-05-07T13:30:50;3.50;;;2.30;;
47155;SDS011;32908;52.344;16.858;2023-05-07T13:33:18;4.50;;;2.50;;
47155;SDS011;32908;52.344;16.858;2023-05-07T13:35:46;2.10;;;1.90;;
47155;SDS011;32908;52.344;16.858;2023-05-07T13:38:14;3.70;;;2.30;;
47155;SDS011;32908;52.344;16.858;2023-05-07T13:40:42;3.50;;;2.10;;
47155;SDS011;32908;52.344;16.858;2023-05-07T13:43:10;2.60;;;1.80;;
47155;SDS011;32908;52.344;16.858;2023-05-07T13:45:38;2.30;;;2.10;;
47155;SDS011;32908;52.344;16.858;2023-05-07T13:48:06;3.20;;;2.50;;
47155;SDS011;32908;52.344;16.858;2023-05-07T13:50:34;3.90;;;2.60;;
47155;SDS011;32908;52.344;16.858;2023-05-07T13:53:02;3.80;;;2.40;;
47155;SDS011;32908;52.344;16.858;2023-05-07T13:55:31;6.40;;;3.50;;
47155;SDS011;32908;52.344;16.858;2023-05-07T13:57:59;5.40;;;2.70;;
47155;SDS011;32908;52.344;16.858;2023-05-07T14:00:28;5.90;;;3.00;;
47155;SDS011;32908;52.344;16.858;2023-05-07T14:02:56;3.70;;;2.90;;
47155;SDS011;32908;52.344;16.858;2023-05-07T14:05:24;4.40;;;2.60;;
47155;SDS011;32908;52.344;16.858;2023-05-07T14:07:54;4.10;;;2.60;;
47155;SDS011;32908;52.344;16.858;2023-05-07T14:10:22;3.60;;;2.60;;
47155;SDS011;32908;52.344;16.858;2023-05-07T14:12:50;5.40;;;2.60;;
47155;SDS011;32908;52.344;16.858;2023-05-07T14:15:19;3.30;;;2.80;;
47155;SDS011;32908;52.344;16.858;2023-05-07T14:17:47;4.30;;;2.30;;
47155;SDS011;32908;52.344;16.858;2023-05-07T14:20:15;6.60;;;2.70;;
47155;SDS011;32908;52.344;16.858;2023-05-07T14:22:43;3.70;;;2.70;;
47155;SDS011;32908;52.344;16.858;2023-05-07T14:25:11;5.50;;;2.80;;
47155;SDS011;32908;52.344;16.858;2023-05-07T14:27:39;3.80;;;2.30;;
47155;SDS011;32908;52.344;16.858;2023-05-07T14:30:08;3.00;;;2.00;;
47155;SDS011;32908;52.344;16.858;2023-05-07T14:32:37;4.00;;;3.00;;
47155;SDS011;32908;52.344;16.858;2023-05-07T14:35:05;4.40;;;2.50;;
47155;SDS011;32908;52.344;16.858;2023-05-07T14:37:34;5.70;;;3.00;;
47155;SDS011;32908;52.344;16.858;2023-05-07T14:40:02;4.70;;;2.80;;
47155;SDS011;32908;52.344;16.858;2023-05-07T14:42:31;7.50;;;4.10;;
47155;SDS011;32908;52.344;16.858;2023-05-07T14:44:59;8.20;;;3.60;;
47155;SDS011;32908;52.344;16.858;2023-05-07T14:47:27;3.80;;;2.40;;
47155;SDS011;32908;52.344;16.858;2023-05-07T14:49:55;6.10;;;2.60;;